sensor_id;sensor_type;location;lat;lon;timestamp;temperature;humidity
10155;DHT22;5118;48.570;7.916;2023-07-08T00:00:46;20.20;93.40
10155;DHT22;5118;48.570;7.916;2023-07-08T00:03:16;20.10;94.00
10155;DHT22;5118;48.570;7.916;2023-07-08T00:05:45;20.10;95.80
10155;DHT22;5118;48.570;7.916;2023-07-08T00:08:16;20.00;97.00
10155;DHT22;5118;48.570;7.916;2023-07-08T00:10:46;20.00;97.50
10155;DHT22;5118;48.570;7.916;2023-07-08T00:13:15;19.90;98.20
10155;DHT22;5118;48.570;7.916;2023-07-08T00:15:46;19.90;98.20
10155;DHT22;5118;48.570;7.916;2023-07-08T00:18:16;19.80;98.40
10155;DHT22;5118;48.570;7.916;2023-07-08T00:20:46;19.80;99.70
10155;DHT22;5118;48.570;7.916;2023-07-08T00:23:17;19.70;99.90
10155;DHT22;5118;48.570;7.916;2023-07-08T00:25:48;19.70;99.90
10155;DHT22;5118;48.570;7.916;2023-07-08T00:28:18;19.70;99.90
10155;DHT22;5118;48.570;7.916;2023-07-08T00:30:48;19.60;99.90
10155;DHT22;5118;48.570;7.916;2023-07-08T00:33:16;19.60;99.90
10155;DHT22;5118;48.570;7.916;2023-07-08T00:35:45;19.60;99.90
10155;DHT22;5118;48.570;7.916;2023-07-08T00:38:17;19.60;99.90
10155;DHT22;5118;48.570;7.916;2023-07-08T00:40:50;19.60;99.90
10155;DHT22;5118;48.570;7.916;2023-07-08T00:43:23;19.60;99.90
10155;DHT22;5118;48.570;7.916;2023-07-08T00:45:59;19.50;99.90
10155;DHT22;5118;48.570;7.916;2023-07-08T00:48:34;19.50;99.90
10155;DHT22;5118;48.570;7.916;2023-07-08T00:51:02;19.50;99.90
10155;DHT22;5118;48.570;7.916;2023-07-08T00:53:33;19.50;99.90
10155;DHT22;5118;48.570;7.916;2023-07-08T00:56:06;19.40;99.90
10155;DHT22;5118;48.570;7.916;2023-07-08T00:58:39;19.40;99.90
10155;DHT22;5118;48.570;7.916;2023-07-08T01:01:09;19.40;99.90
10155;DHT22;5118;48.570;7.916;2023-07-08T01:03:44;19.50;99.90
10155;DHT22;5118;48.570;7.916;2023-07-08T01:06:17;19.50;99.90
10155;DHT22;5118;48.570;7.916;2023-07-08T01:08:48;19.50;99.90
10155;DHT22;5118;48.570;7.916;2023-07-08T01:11:21;19.40;99.90
10155;DHT22;5118;48.570;7.916;2023-07-08T01:13:50;19.40;99.90
10155;DHT22;5118;48.570;7.916;2023-07-08T01:16:21;19.30;99.90
10155;DHT22;5118;48.570;7.916;2023-07-08T01:18:50;19.30;99.90
10155;DHT22;5118;48.570;7.916;2023-07-08T01:21:31;19.20;99.90
10155;DHT22;5118;48.570;7.916;2023-07-08T01:24:04;19.20;99.90
10155;DHT22;5118;48.570;7.916;2023-07-08T01:26:35;19.20;99.90
10155;DHT22;5118;48.570;7.916;2023-07-08T01:29:04;19.20;99.90
10155;DHT22;5118;48.570;7.916;2023-07-08T01:31:34;19.10;99.90
10155;DHT22;5118;48.570;7.916;2023-07-08T01:34:04;19.10;99.90
10155;DHT22;5118;48.570;7.916;2023-07-08T01:36:38;19.00;99.90
10155;DHT22;5118;48.570;7.916;2023-07-08T01:39:14;19.00;99.90
10155;DHT22;5118;48.570;7.916;2023-07-08T01:41:44;19.00;99.90
10155;DHT22;5118;48.570;7.916;2023-07-08T01:44:23;18.90;99.90
10155;DHT22;5118;48.570;7.916;2023-07-08T01:46:53;18.90;99.90
10155;DHT22;5118;48.570;7.916;2023-07-08T01:49:23;18.80;99.90
10155;DHT22;5118;48.570;7.916;2023-07-08T01:51:52;18.80;99.90
10155;DHT22;5118;48.570;7.916;2023-07-08T01:54:22;18.80;99.90
10155;DHT22;5118;48.570;7.916;2023-07-08T01:56:54;18.70;99.90
10155;DHT22;5118;48.570;7.916;2023-07-08T01:59:23;18.70;99.90
10155;DHT22;5118;48.570;7.916;2023-07-08T02:01:52;18.70;99.90
10155;DHT22;5118;48.570;7.916;2023-07-08T02:04:24;18.60;99.90
10155;DHT22;5118;48.570;7.916;2023-07-08T02:06:53;18.60;99.90
10155;DHT22;5118;48.570;7.916;2023-07-08T02:09:23;18.60;99.90
10155;DHT22;5118;48.570;7.916;2023-07-08T02:11:52;18.60;99.90
10155;DHT22;5118;48.570;7.916;2023-07-08T02:14:21;18.60;99.90
10155;DHT22;5118;48.570;7.916;2023-07-08T02:16:49;18.50;99.90
10155;DHT22;5118;48.570;7.916;2023-07-08T02:19:19;18.50;99.90
10155;DHT22;5118;48.570;7.916;2023-07-08T02:21:49;18.50;99.90
10155;DHT22;5118;48.570;7.916;2023-07-08T02:24:18;18.50;99.90
10155;DHT22;5118;48.570;7.916;2023-07-08T02:26:49;18.40;99.90
10155;DHT22;5118;48.570;7.916;2023-07-08T02:29:17;18.40;99.90
10155;DHT22;5118;48.570;7.916;2023-07-08T02:31:45;18.40;99.90
10155;DHT22;5118;48.570;7.916;2023-07-08T02:34:14;18.30;99.90
10155;DHT22;5118;48.570;7.916;2023-07-08T02:36:43;18.20;99.90
10155;DHT22;5118;48.570;7.916;2023-07-08T02:39:12;18.20;99.90
10155;DHT22;5118;48.570;7.916;2023-07-08T02:41:40;18.20;99.90
10155;DHT22;5118;48.570;7.916;2023-07-08T02:44:10;18.20;99.90
10155;DHT22;5118;48.570;7.916;2023-07-08T02:46:38;18.10;99.90
10155;DHT22;5118;48.570;7.916;2023-07-08T02:49:07;18.10;99.90
10155;DHT22;5118;48.570;7.916;2023-07-08T02:51:35;18.00;99.90
10155;DHT22;5118;48.570;7.916;2023-07-08T02:54:04;18.00;99.90
10155;DHT22;5118;48.570;7.916;2023-07-08T02:56:32;18.00;99.90
10155;DHT22;5118;48.570;7.916;2023-07-08T02:59:00;17.90;99.90
10155;DHT22;5118;48.570;7.916;2023-07-08T03:01:30;17.90;99.90
10155;DHT22;5118;48.570;7.916;2023-07-08T03:04:01;17.90;99.90
10155;DHT22;5118;48.570;7.916;2023-07-08T03:06:30;17.90;99.90
10155;DHT22;5118;48.570;7.916;2023-07-08T03:09:00;17.80;99.90
10155;DHT22;5118;48.570;7.916;2023-07-08T03:11:28;17.80;99.90
10155;DHT22;5118;48.570;7.916;2023-07-08T03:13:57;17.80;99.90
10155;DHT22;5118;48.570;7.916;2023-07-08T03:16:25;17.70;99.90
10155;DHT22;5118;48.570;7.916;2023-07-08T03:18:55;17.70;99.90
10155;DHT22;5118;48.570;7.916;2023-07-08T03:21:24;17.70;99.90
10155;DHT22;5118;48.570;7.916;2023-07-08T03:23:53;17.60;99.90
10155;DHT22;5118;48.570;7.916;2023-07-08T03:26:23;17.60;99.90
10155;DHT22;5118;48.570;7.916;2023-07-08T03:28:53;17.60;99.90
10155;DHT22;5118;48.570;7.916;2023-07-08T03:31:23;17.60;99.90
10155;DHT22;5118;48.570;7.916;2023-07-08T03:33:52;17.50;99.90
10155;DHT22;5118;48.570;7.916;2023-07-08T03:36:22;17.50;99.90
10155;DHT22;5118;48.570;7.916;2023-07-08T03:38:52;17.40;99.90
10155;DHT22;5118;48.570;7.916;2023-07-08T03:41:20;17.40;99.90
10155;DHT22;5118;48.570;7.916;2023-07-08T03:43:49;17.30;99.90
10155;DHT22;5118;48.570;7.916;2023-07-08T03:46:20;17.30;99.90
10155;DHT22;5118;48.570;7.916;2023-07-08T03:48:51;17.20;99.90
10155;DHT22;5118;48.570;7.916;2023-07-08T03:51:23;17.20;99.90
10155;DHT22;5118;48.570;7.916;2023-07-08T03:53:53;17.20;99.90
10155;DHT22;5118;48.570;7.916;2023-07-08T03:56:23;17.10;99.90
10155;DHT22;5118;48.570;7.916;2023-07-08T03:58:52;17.10;99.90
10155;DHT22;5118;48.570;7.916;2023-07-08T04:01:23;17.20;99.90
10155;DHT22;5118;48.570;7.916;2023-07-08T04:03:54;17.20;99.90
10155;DHT22;5118;48.570;7.916;2023-07-08T04:06:25;17.20;99.90
10155;DHT22;5118;48.570;7.916;2023-07-08T04:08:55;17.30;99.90
10155;DHT22;5118;48.570;7.916;2023-07-08T04:11:24;17.50;99.90
10155;DHT22;5118;48.570;7.916;2023-07-08T04:13:52;17.70;99.90
10155;DHT22;5118;48.570;7.916;2023-07-08T04:16:24;17.90;99.90
10155;DHT22;5118;48.570;7.916;2023-07-08T04:18:55;18.00;99.90
10155;DHT22;5118;48.570;7.916;2023-07-08T04:21:25;18.20;99.90
10155;DHT22;5118;48.570;7.916;2023-07-08T04:23:54;18.30;99.90
10155;DHT22;5118;48.570;7.916;2023-07-08T04:26:22;18.40;99.90
10155;DHT22;5118;48.570;7.916;2023-07-08T04:28:50;18.50;99.90
10155;DHT22;5118;48.570;7.916;2023-07-08T04:31:19;18.60;99.90
10155;DHT22;5118;48.570;7.916;2023-07-08T04:33:47;18.70;99.90
10155;DHT22;5118;48.570;7.916;2023-07-08T04:36:16;18.80;99.90
10155;DHT22;5118;48.570;7.916;2023-07-08T04:38:45;18.90;99.90
10155;DHT22;5118;48.570;7.916;2023-07-08T04:41:14;19.00;99.90
10155;DHT22;5118;48.570;7.916;2023-07-08T04:43:43;19.20;99.90
10155;DHT22;5118;48.570;7.916;2023-07-08T04:46:18;19.30;99.90
10155;DHT22;5118;48.570;7.916;2023-07-08T04:48:47;19.40;99.90
10155;DHT22;5118;48.570;7.916;2023-07-08T04:51:15;19.60;99.90
10155;DHT22;5118;48.570;7.916;2023-07-08T04:53:47;19.70;99.90
10155;DHT22;5118;48.570;7.916;2023-07-08T04:56:16;19.90;99.90
10155;DHT22;5118;48.570;7.916;2023-07-08T04:58:45;20.00;99.90
10155;DHT22;5118;48.570;7.916;2023-07-08T05:01:13;20.20;99.90
10155;DHT22;5118;48.570;7.916;2023-07-08T05:03:41;20.40;99.90
10155;DHT22;5118;48.570;7.916;2023-07-08T05:06:10;20.60;99.90
10155;DHT22;5118;48.570;7.916;2023-07-08T05:08:38;20.90;99.90
10155;DHT22;5118;48.570;7.916;2023-07-08T05:11:08;21.20;99.90
10155;DHT22;5118;48.570;7.916;2023-07-08T05:13:36;21.50;99.90
10155;DHT22;5118;48.570;7.916;2023-07-08T05:16:05;21.70;99.90
10155;DHT22;5118;48.570;7.916;2023-07-08T05:18:33;21.90;99.90
10155;DHT22;5118;48.570;7.916;2023-07-08T05:21:02;22.10;99.90
10155;DHT22;5118;48.570;7.916;2023-07-08T05:23:32;22.20;99.90
10155;DHT22;5118;48.570;7.916;2023-07-08T05:26:01;22.30;99.90
10155;DHT22;5118;48.570;7.916;2023-07-08T05:28:31;22.50;99.90
10155;DHT22;5118;48.570;7.916;2023-07-08T05:31:00;22.50;99.90
10155;DHT22;5118;48.570;7.916;2023-07-08T05:33:30;22.60;99.90
10155;DHT22;5118;48.570;7.916;2023-07-08T05:35:58;22.60;99.90
10155;DHT22;5118;48.570;7.916;2023-07-08T05:38:27;22.60;99.90
10155;DHT22;5118;48.570;7.916;2023-07-08T05:40:57;22.60;99.90
10155;DHT22;5118;48.570;7.916;2023-07-08T05:43:27;22.60;99.90
10155;DHT22;5118;48.570;7.916;2023-07-08T05:46:00;22.50;99.90
10155;DHT22;5118;48.570;7.916;2023-07-08T05:48:39;22.60;99.90
10155;DHT22;5118;48.570;7.916;2023-07-08T05:51:07;22.60;99.90
10155;DHT22;5118;48.570;7.916;2023-07-08T05:53:36;22.50;99.90
10155;DHT22;5118;48.570;7.916;2023-07-08T05:56:04;22.50;99.90
10155;DHT22;5118;48.570;7.916;2023-07-08T05:58:33;22.40;99.90
10155;DHT22;5118;48.570;7.916;2023-07-08T06:01:03;22.40;99.90
10155;DHT22;5118;48.570;7.916;2023-07-08T06:03:32;22.40;99.90
10155;DHT22;5118;48.570;7.916;2023-07-08T06:06:01;22.40;99.90
10155;DHT22;5118;48.570;7.916;2023-07-08T06:08:29;22.40;99.90
10155;DHT22;5118;48.570;7.916;2023-07-08T06:10:57;22.40;99.90
10155;DHT22;5118;48.570;7.916;2023-07-08T06:13:26;22.30;99.90
10155;DHT22;5118;48.570;7.916;2023-07-08T06:15:55;22.40;99.90
10155;DHT22;5118;48.570;7.916;2023-07-08T06:18:24;22.40;99.90
10155;DHT22;5118;48.570;7.916;2023-07-08T06:20:55;22.40;99.90
10155;DHT22;5118;48.570;7.916;2023-07-08T06:23:24;22.40;99.90
10155;DHT22;5118;48.570;7.916;2023-07-08T06:25:53;22.40;99.90
10155;DHT22;5118;48.570;7.916;2023-07-08T06:28:22;22.30;99.90
10155;DHT22;5118;48.570;7.916;2023-07-08T06:30:51;22.40;99.90
10155;DHT22;5118;48.570;7.916;2023-07-08T06:33:19;22.40;99.90
10155;DHT22;5118;48.570;7.916;2023-07-08T06:35:49;22.40;99.90
10155;DHT22;5118;48.570;7.916;2023-07-08T06:38:17;22.50;99.90
10155;DHT22;5118;48.570;7.916;2023-07-08T06:40:45;22.60;99.90
10155;DHT22;5118;48.570;7.916;2023-07-08T06:43:14;22.70;99.90
10155;DHT22;5118;48.570;7.916;2023-07-08T06:45:57;22.80;99.90
10155;DHT22;5118;48.570;7.916;2023-07-08T06:48:26;22.90;99.90
10155;DHT22;5118;48.570;7.916;2023-07-08T06:50:56;23.00;99.90
10155;DHT22;5118;48.570;7.916;2023-07-08T06:53:25;23.00;99.90
10155;DHT22;5118;48.570;7.916;2023-07-08T06:55:53;23.10;99.90
10155;DHT22;5118;48.570;7.916;2023-07-08T06:58:21;23.20;99.90
10155;DHT22;5118;48.570;7.916;2023-07-08T07:00:50;23.30;99.90
10155;DHT22;5118;48.570;7.916;2023-07-08T07:03:18;23.30;99.90
10155;DHT22;5118;48.570;7.916;2023-07-08T07:05:47;23.40;99.90
10155;DHT22;5118;48.570;7.916;2023-07-08T07:08:17;23.50;99.90
10155;DHT22;5118;48.570;7.916;2023-07-08T07:10:45;23.60;99.90
10155;DHT22;5118;48.570;7.916;2023-07-08T07:13:13;23.70;99.90
10155;DHT22;5118;48.570;7.916;2023-07-08T07:15:43;23.80;99.90
10155;DHT22;5118;48.570;7.916;2023-07-08T07:18:12;24.00;99.90
10155;DHT22;5118;48.570;7.916;2023-07-08T07:20:48;24.10;99.90
10155;DHT22;5118;48.570;7.916;2023-07-08T07:23:18;24.20;99.90
10155;DHT22;5118;48.570;7.916;2023-07-08T07:25:47;24.20;99.90
10155;DHT22;5118;48.570;7.916;2023-07-08T07:28:18;24.30;99.90
10155;DHT22;5118;48.570;7.916;2023-07-08T07:30:47;24.30;99.90
10155;DHT22;5118;48.570;7.916;2023-07-08T07:33:15;24.20;99.90
10155;DHT22;5118;48.570;7.916;2023-07-08T07:35:44;24.20;99.90
10155;DHT22;5118;48.570;7.916;2023-07-08T07:38:14;24.20;99.90
10155;DHT22;5118;48.570;7.916;2023-07-08T07:40:44;24.20;99.90
10155;DHT22;5118;48.570;7.916;2023-07-08T07:43:13;24.30;99.90
10155;DHT22;5118;48.570;7.916;2023-07-08T07:45:41;24.30;99.90
10155;DHT22;5118;48.570;7.916;2023-07-08T07:48:09;24.40;99.90
10155;DHT22;5118;48.570;7.916;2023-07-08T07:50:38;24.50;99.90
10155;DHT22;5118;48.570;7.916;2023-07-08T07:53:07;24.50;99.90
10155;DHT22;5118;48.570;7.916;2023-07-08T07:55:35;24.60;99.90
10155;DHT22;5118;48.570;7.916;2023-07-08T07:58:04;24.60;99.90
10155;DHT22;5118;48.570;7.916;2023-07-08T08:00:33;24.70;99.90
10155;DHT22;5118;48.570;7.916;2023-07-08T08:03:02;24.90;99.90
10155;DHT22;5118;48.570;7.916;2023-07-08T08:05:31;24.90;99.90
10155;DHT22;5118;48.570;7.916;2023-07-08T08:07:59;25.00;99.90
10155;DHT22;5118;48.570;7.916;2023-07-08T08:10:27;25.10;99.90
10155;DHT22;5118;48.570;7.916;2023-07-08T08:12:56;25.20;99.90
10155;DHT22;5118;48.570;7.916;2023-07-08T08:15:26;25.30;99.90
10155;DHT22;5118;48.570;7.916;2023-07-08T08:17:54;25.30;99.90
10155;DHT22;5118;48.570;7.916;2023-07-08T08:20:24;25.40;99.90
10155;DHT22;5118;48.570;7.916;2023-07-08T08:22:53;25.40;99.90
10155;DHT22;5118;48.570;7.916;2023-07-08T08:25:23;25.30;99.90
10155;DHT22;5118;48.570;7.916;2023-07-08T08:27:52;25.10;99.90
10155;DHT22;5118;48.570;7.916;2023-07-08T08:30:20;25.00;99.90
10155;DHT22;5118;48.570;7.916;2023-07-08T08:32:51;24.80;99.90
10155;DHT22;5118;48.570;7.916;2023-07-08T08:35:19;24.70;99.90
10155;DHT22;5118;48.570;7.916;2023-07-08T08:37:48;24.70;99.90
10155;DHT22;5118;48.570;7.916;2023-07-08T08:40:17;24.60;99.90
10155;DHT22;5118;48.570;7.916;2023-07-08T08:42:52;24.60;99.90
10155;DHT22;5118;48.570;7.916;2023-07-08T08:45:22;24.60;99.90
10155;DHT22;5118;48.570;7.916;2023-07-08T08:47:59;24.70;99.90
10155;DHT22;5118;48.570;7.916;2023-07-08T08:50:31;24.70;99.90
10155;DHT22;5118;48.570;7.916;2023-07-08T08:53:02;24.80;99.90
10155;DHT22;5118;48.570;7.916;2023-07-08T08:55:31;24.90;99.90
10155;DHT22;5118;48.570;7.916;2023-07-08T08:58:08;25.10;99.90
10155;DHT22;5118;48.570;7.916;2023-07-08T09:00:46;25.30;99.90
10155;DHT22;5118;48.570;7.916;2023-07-08T09:03:17;25.50;99.90
10155;DHT22;5118;48.570;7.916;2023-07-08T09:05:47;25.70;99.90
10155;DHT22;5118;48.570;7.916;2023-07-08T09:08:20;25.80;99.90
10155;DHT22;5118;48.570;7.916;2023-07-08T09:10:56;25.90;99.90
10155;DHT22;5118;48.570;7.916;2023-07-08T09:13:30;26.00;99.90
10155;DHT22;5118;48.570;7.916;2023-07-08T09:16:14;26.10;99.90
10155;DHT22;5118;48.570;7.916;2023-07-08T09:18:56;26.30;99.90
10155;DHT22;5118;48.570;7.916;2023-07-08T09:21:29;26.30;99.90
10155;DHT22;5118;48.570;7.916;2023-07-08T09:24:02;26.40;99.90
10155;DHT22;5118;48.570;7.916;2023-07-08T09:26:33;26.50;99.90
10155;DHT22;5118;48.570;7.916;2023-07-08T09:29:08;26.50;99.90
10155;DHT22;5118;48.570;7.916;2023-07-08T09:31:39;26.60;99.90
10155;DHT22;5118;48.570;7.916;2023-07-08T09:34:13;26.60;99.90
10155;DHT22;5118;48.570;7.916;2023-07-08T09:36:44;26.70;99.90
10155;DHT22;5118;48.570;7.916;2023-07-08T09:39:14;26.70;99.90
10155;DHT22;5118;48.570;7.916;2023-07-08T09:41:45;26.70;99.90
10155;DHT22;5118;48.570;7.916;2023-07-08T09:44:22;26.70;99.90
10155;DHT22;5118;48.570;7.916;2023-07-08T09:46:53;26.90;99.50
10155;DHT22;5118;48.570;7.916;2023-07-08T09:49:28;27.00;99.30
10155;DHT22;5118;48.570;7.916;2023-07-08T09:51:56;27.20;98.90
10155;DHT22;5118;48.570;7.916;2023-07-08T09:54:26;27.40;98.10
10155;DHT22;5118;48.570;7.916;2023-07-08T09:56:58;27.50;97.50
10155;DHT22;5118;48.570;7.916;2023-07-08T09:59:31;27.60;97.10
10155;DHT22;5118;48.570;7.916;2023-07-08T10:04:52;27.70;96.70
10155;DHT22;5118;48.570;7.916;2023-07-08T10:07:21;27.80;96.60
10155;DHT22;5118;48.570;7.916;2023-07-08T10:09:52;27.90;96.40
10155;DHT22;5118;48.570;7.916;2023-07-08T10:12:23;28.00;96.50
10155;DHT22;5118;48.570;7.916;2023-07-08T10:14:55;28.10;95.70
10155;DHT22;5118;48.570;7.916;2023-07-08T10:17:24;28.10;95.80
10155;DHT22;5118;48.570;7.916;2023-07-08T10:19:54;28.20;95.60
10155;DHT22;5118;48.570;7.916;2023-07-08T10:22:33;28.30;95.20
10155;DHT22;5118;48.570;7.916;2023-07-08T10:25:12;28.30;95.20
10155;DHT22;5118;48.570;7.916;2023-07-08T10:27:49;28.40;95.00
10155;DHT22;5118;48.570;7.916;2023-07-08T10:30:22;28.60;94.80
10155;DHT22;5118;48.570;7.916;2023-07-08T10:33:02;28.60;94.30
10155;DHT22;5118;48.570;7.916;2023-07-08T10:35:42;28.60;94.40
10155;DHT22;5118;48.570;7.916;2023-07-08T10:38:26;28.80;94.10
10155;DHT22;5118;48.570;7.916;2023-07-08T10:41:11;28.90;93.40
10155;DHT22;5118;48.570;7.916;2023-07-08T10:43:51;29.00;92.40
10155;DHT22;5118;48.570;7.916;2023-07-08T10:46:33;29.10;91.80
10155;DHT22;5118;48.570;7.916;2023-07-08T10:49:26;29.20;91.30
10155;DHT22;5118;48.570;7.916;2023-07-08T10:52:12;29.30;90.50
10155;DHT22;5118;48.570;7.916;2023-07-08T10:54:54;29.30;90.40
10155;DHT22;5118;48.570;7.916;2023-07-08T10:57:40;29.40;90.30
10155;DHT22;5118;48.570;7.916;2023-07-08T11:00:23;29.50;89.30
10155;DHT22;5118;48.570;7.916;2023-07-08T11:05:46;29.60;86.40
10155;DHT22;5118;48.570;7.916;2023-07-08T11:08:20;29.70;86.50
10155;DHT22;5118;48.570;7.916;2023-07-08T11:10:53;29.80;85.60
10155;DHT22;5118;48.570;7.916;2023-07-08T11:13:45;30.00;85.00
10155;DHT22;5118;48.570;7.916;2023-07-08T11:16:21;30.20;84.90
10155;DHT22;5118;48.570;7.916;2023-07-08T11:18:53;30.50;83.30
10155;DHT22;5118;48.570;7.916;2023-07-08T11:21:25;31.00;81.40
10155;DHT22;5118;48.570;7.916;2023-07-08T11:24:00;31.90;77.00
10155;DHT22;5118;48.570;7.916;2023-07-08T11:26:33;32.70;65.50
10155;DHT22;5118;48.570;7.916;2023-07-08T11:29:14;33.20;55.30
10155;DHT22;5118;48.570;7.916;2023-07-08T11:31:45;33.90;49.80
10155;DHT22;5118;48.570;7.916;2023-07-08T11:34:16;34.60;45.20
10155;DHT22;5118;48.570;7.916;2023-07-08T11:36:46;35.20;38.70
10155;DHT22;5118;48.570;7.916;2023-07-08T11:39:39;35.50;33.00
10155;DHT22;5118;48.570;7.916;2023-07-08T11:42:17;36.30;29.00
10155;DHT22;5118;48.570;7.916;2023-07-08T11:44:50;36.90;27.70
10155;DHT22;5118;48.570;7.916;2023-07-08T11:47:24;37.70;24.60
10155;DHT22;5118;48.570;7.916;2023-07-08T11:49:54;38.30;23.00
10155;DHT22;5118;48.570;7.916;2023-07-08T11:52:23;38.90;20.90
10155;DHT22;5118;48.570;7.916;2023-07-08T11:55:02;39.30;18.90
10155;DHT22;5118;48.570;7.916;2023-07-08T11:57:37;39.80;14.80
10155;DHT22;5118;48.570;7.916;2023-07-08T12:00:19;40.20;14.30
10155;DHT22;5118;48.570;7.916;2023-07-08T12:02:53;40.30;11.10
10155;DHT22;5118;48.570;7.916;2023-07-08T12:05:33;40.20;10.50
10155;DHT22;5118;48.570;7.916;2023-07-08T12:08:02;40.10;9.00
10155;DHT22;5118;48.570;7.916;2023-07-08T12:10:36;40.30;10.10
10155;DHT22;5118;48.570;7.916;2023-07-08T12:13:10;40.40;8.60
10155;DHT22;5118;48.570;7.916;2023-07-08T12:15:40;40.60;8.50
10155;DHT22;5118;48.570;7.916;2023-07-08T12:18:13;40.90;7.50
10155;DHT22;5118;48.570;7.916;2023-07-08T12:20:46;41.10;6.80
10155;DHT22;5118;48.570;7.916;2023-07-08T12:23:19;41.10;5.90
10155;DHT22;5118;48.570;7.916;2023-07-08T12:25:51;41.30;5.50
10155;DHT22;5118;48.570;7.916;2023-07-08T12:28:21;41.60;5.00
10155;DHT22;5118;48.570;7.916;2023-07-08T12:30:50;41.70;4.50
10155;DHT22;5118;48.570;7.916;2023-07-08T12:33:25;41.90;4.60
10155;DHT22;5118;48.570;7.916;2023-07-08T12:35:55;42.30;4.20
10155;DHT22;5118;48.570;7.916;2023-07-08T12:38:28;42.90;4.30
10155;DHT22;5118;48.570;7.916;2023-07-08T12:41:00;43.30;2.60
10155;DHT22;5118;48.570;7.916;2023-07-08T12:43:29;43.80;2.70
10155;DHT22;5118;48.570;7.916;2023-07-08T12:45:59;44.30;2.10
10155;DHT22;5118;48.570;7.916;2023-07-08T12:48:31;44.60;1.00
10155;DHT22;5118;48.570;7.916;2023-07-08T12:51:00;44.40;1.00
10155;DHT22;5118;48.570;7.916;2023-07-08T12:53:29;44.10;1.00
10155;DHT22;5118;48.570;7.916;2023-07-08T12:56:00;44.00;1.00
10155;DHT22;5118;48.570;7.916;2023-07-08T12:58:32;44.40;1.00
10155;DHT22;5118;48.570;7.916;2023-07-08T13:01:03;45.00;1.00
10155;DHT22;5118;48.570;7.916;2023-07-08T13:03:42;45.20;1.00
10155;DHT22;5118;48.570;7.916;2023-07-08T13:06:12;45.20;1.00
10155;DHT22;5118;48.570;7.916;2023-07-08T13:08:43;45.20;1.00
10155;DHT22;5118;48.570;7.916;2023-07-08T13:11:16;45.00;1.00
10155;DHT22;5118;48.570;7.916;2023-07-08T13:13:48;45.00;1.00
10155;DHT22;5118;48.570;7.916;2023-07-08T13:16:17;45.20;1.00
10155;DHT22;5118;48.570;7.916;2023-07-08T13:18:46;45.30;1.00
10155;DHT22;5118;48.570;7.916;2023-07-08T13:21:16;45.50;1.00
10155;DHT22;5118;48.570;7.916;2023-07-08T13:23:44;45.60;1.00
10155;DHT22;5118;48.570;7.916;2023-07-08T13:26:17;45.60;1.00
10155;DHT22;5118;48.570;7.916;2023-07-08T13:28:46;45.80;1.00
10155;DHT22;5118;48.570;7.916;2023-07-08T13:31:17;46.10;1.00
10155;DHT22;5118;48.570;7.916;2023-07-08T13:33:53;46.20;1.00
10155;DHT22;5118;48.570;7.916;2023-07-08T13:36:23;46.10;1.00
10155;DHT22;5118;48.570;7.916;2023-07-08T13:38:52;46.10;1.00
10155;DHT22;5118;48.570;7.916;2023-07-08T13:41:23;46.20;1.00
10155;DHT22;5118;48.570;7.916;2023-07-08T13:43:52;46.40;1.00
10155;DHT22;5118;48.570;7.916;2023-07-08T13:46:33;46.80;1.00
10155;DHT22;5118;48.570;7.916;2023-07-08T13:49:07;47.30;1.00
10155;DHT22;5118;48.570;7.916;2023-07-08T13:51:37;47.80;1.00
10155;DHT22;5118;48.570;7.916;2023-07-08T13:54:16;48.00;1.00
10155;DHT22;5118;48.570;7.916;2023-07-08T13:56:49;48.00;1.00
10155;DHT22;5118;48.570;7.916;2023-07-08T13:59:21;47.80;1.00
10155;DHT22;5118;48.570;7.916;2023-07-08T14:01:52;47.50;1.00
10155;DHT22;5118;48.570;7.916;2023-07-08T14:04:25;47.50;1.00
10155;DHT22;5118;48.570;7.916;2023-07-08T14:06:55;47.80;1.00
10155;DHT22;5118;48.570;7.916;2023-07-08T14:09:23;48.40;1.00
10155;DHT22;5118;48.570;7.916;2023-07-08T14:11:53;48.60;1.00
10155;DHT22;5118;48.570;7.916;2023-07-08T14:14:21;48.90;1.00
10155;DHT22;5118;48.570;7.916;2023-07-08T14:16:52;49.10;1.00
10155;DHT22;5118;48.570;7.916;2023-07-08T14:19:24;49.20;1.00
10155;DHT22;5118;48.570;7.916;2023-07-08T14:21:54;48.90;1.00
10155;DHT22;5118;48.570;7.916;2023-07-08T14:24:24;48.60;1.00
10155;DHT22;5118;48.570;7.916;2023-07-08T14:26:54;48.40;1.00
10155;DHT22;5118;48.570;7.916;2023-07-08T14:29:22;48.50;1.00
10155;DHT22;5118;48.570;7.916;2023-07-08T14:31:51;48.40;1.00
10155;DHT22;5118;48.570;7.916;2023-07-08T14:34:23;48.20;1.00
10155;DHT22;5118;48.570;7.916;2023-07-08T14:36:52;48.10;1.00
10155;DHT22;5118;48.570;7.916;2023-07-08T14:39:21;48.00;1.00
10155;DHT22;5118;48.570;7.916;2023-07-08T14:41:50;48.40;1.00
10155;DHT22;5118;48.570;7.916;2023-07-08T14:44:26;48.70;1.00
10155;DHT22;5118;48.570;7.916;2023-07-08T14:46:58;49.00;1.00
10155;DHT22;5118;48.570;7.916;2023-07-08T14:49:27;49.40;1.00
10155;DHT22;5118;48.570;7.916;2023-07-08T14:51:55;49.80;1.00
10155;DHT22;5118;48.570;7.916;2023-07-08T14:54:24;50.20;1.00
10155;DHT22;5118;48.570;7.916;2023-07-08T14:56:54;50.70;1.00
10155;DHT22;5118;48.570;7.916;2023-07-08T14:59:27;51.00;1.00
10155;DHT22;5118;48.570;7.916;2023-07-08T15:01:58;51.40;1.00
10155;DHT22;5118;48.570;7.916;2023-07-08T15:04:27;51.70;1.00
10155;DHT22;5118;48.570;7.916;2023-07-08T15:06:58;52.10;1.00
10155;DHT22;5118;48.570;7.916;2023-07-08T15:09:27;52.00;1.00
10155;DHT22;5118;48.570;7.916;2023-07-08T15:11:55;51.70;1.00
10155;DHT22;5118;48.570;7.916;2023-07-08T15:14:25;51.50;1.00
10155;DHT22;5118;48.570;7.916;2023-07-08T15:16:54;51.60;1.00
10155;DHT22;5118;48.570;7.916;2023-07-08T15:19:24;51.90;1.00
10155;DHT22;5118;48.570;7.916;2023-07-08T15:21:53;52.30;1.00
10155;DHT22;5118;48.570;7.916;2023-07-08T15:24:21;52.70;1.00
10155;DHT22;5118;48.570;7.916;2023-07-08T15:26:51;52.90;1.00
10155;DHT22;5118;48.570;7.916;2023-07-08T15:29:22;53.00;1.00
10155;DHT22;5118;48.570;7.916;2023-07-08T15:31:52;52.60;1.00
10155;DHT22;5118;48.570;7.916;2023-07-08T15:34:22;52.30;1.00
10155;DHT22;5118;48.570;7.916;2023-07-08T15:36:51;51.80;1.00
10155;DHT22;5118;48.570;7.916;2023-07-08T15:39:19;51.40;1.00
10155;DHT22;5118;48.570;7.916;2023-07-08T15:41:48;50.70;1.00
10155;DHT22;5118;48.570;7.916;2023-07-08T15:44:16;50.00;1.00
10155;DHT22;5118;48.570;7.916;2023-07-08T15:46:46;49.20;1.00
10155;DHT22;5118;48.570;7.916;2023-07-08T15:49:18;48.50;1.00
10155;DHT22;5118;48.570;7.916;2023-07-08T15:51:47;48.00;1.00
10155;DHT22;5118;48.570;7.916;2023-07-08T15:54:18;47.90;1.00
10155;DHT22;5118;48.570;7.916;2023-07-08T15:56:49;47.70;1.00
10155;DHT22;5118;48.570;7.916;2023-07-08T15:59:21;47.70;1.00
10155;DHT22;5118;48.570;7.916;2023-07-08T16:01:52;47.70;1.00
10155;DHT22;5118;48.570;7.916;2023-07-08T16:04:25;47.90;1.00
10155;DHT22;5118;48.570;7.916;2023-07-08T16:06:55;48.20;1.00
10155;DHT22;5118;48.570;7.916;2023-07-08T16:09:24;48.50;1.00
10155;DHT22;5118;48.570;7.916;2023-07-08T16:11:52;48.50;1.00
10155;DHT22;5118;48.570;7.916;2023-07-08T16:14:21;48.30;1.00
10155;DHT22;5118;48.570;7.916;2023-07-08T16:16:53;48.40;1.00
10155;DHT22;5118;48.570;7.916;2023-07-08T16:19:23;48.60;1.00